createdAt,value
2022-10-22T00:01:06.740Z,10.02
2022-10-22T00:03:33.332Z,10.40
2022-10-22T00:05:59.899Z,9.73
2022-10-22T00:08:26.679Z,10.57
2022-10-22T00:10:53.398Z,10.70
2022-10-22T00:13:21.352Z,10.73
2022-10-22T00:15:48.890Z,10.40
2022-10-22T00:18:15.484Z,10.82
2022-10-22T00:20:42.211Z,11.63
2022-10-22T00:23:08.794Z,11.98
2022-10-22T00:25:35.891Z,11.52
2022-10-22T00:28:02.868Z,12.60
2022-10-22T00:30:30.748Z,10.68
2022-10-22T00:32:57.317Z,11.40
2022-10-22T00:35:23.896Z,11.05
2022-10-22T00:37:50.480Z,10.82
2022-10-22T00:40:17.101Z,12.27
2022-10-22T00:42:43.970Z,12.40
2022-10-22T00:45:18.730Z,12.02
2022-10-22T00:47:50.577Z,11.38
2022-10-22T00:52:46.828Z,13.13
2022-10-22T00:55:14.243Z,12.00
2022-10-22T00:57:41.211Z,12.57
2022-10-22T01:00:10.020Z,12.50
2022-10-22T01:02:36.727Z,12.77
2022-10-22T01:05:05.298Z,13.65
2022-10-22T01:07:38.249Z,13.38
2022-10-22T01:10:10.692Z,15.32
2022-10-22T01:12:46.307Z,14.40
2022-10-22T01:15:22.423Z,13.60
2022-10-22T01:17:58.310Z,13.15
2022-10-22T01:20:46.657Z,12.65
2022-10-22T01:23:24.258Z,10.68
2022-10-22T01:25:58.511Z,11.85
2022-10-22T01:28:43.836Z,12.07
2022-10-22T01:31:13.495Z,12.68
2022-10-22T01:33:40.767Z,12.98
2022-10-22T01:36:08.860Z,11.70
2022-10-22T01:38:36.404Z,12.48
2022-10-22T01:41:03.128Z,13.00
2022-10-22T01:43:29.639Z,12.55
2022-10-22T01:46:01.367Z,13.55
2022-10-22T01:48:40.336Z,13.18
2022-10-22T01:51:22.390Z,14.73
2022-10-22T01:56:36.324Z,15.35
2022-10-22T01:59:07.995Z,16.02
2022-10-22T02:01:46.312Z,15.77
2022-10-22T02:04:19.057Z,16.80
2022-10-22T02:06:47.848Z,16.40
2022-10-22T02:09:16.408Z,14.00
2022-10-22T02:11:44.590Z,14.23
2022-10-22T02:14:12.621Z,15.50
2022-10-22T02:16:44.324Z,14.45
2022-10-22T02:19:19.267Z,14.38
2022-10-22T02:21:45.998Z,14.40
2022-10-22T02:24:13.143Z,13.00
2022-10-22T02:26:46.292Z,14.85
2022-10-22T02:29:18.699Z,13.95
2022-10-22T02:31:48.826Z,13.27
2022-10-22T02:34:21.612Z,12.95
2022-10-22T02:36:50.522Z,12.00
2022-10-22T02:39:19.094Z,11.93
2022-10-22T02:41:45.723Z,12.40
2022-10-22T02:44:12.263Z,12.18
2022-10-22T02:46:40.141Z,11.05
2022-10-22T02:49:08.153Z,12.18
2022-10-22T02:51:34.770Z,11.45
2022-10-22T02:54:01.384Z,11.32
2022-10-22T02:56:27.946Z,10.07
2022-10-22T02:58:54.477Z,10.32
2022-10-22T03:01:21.338Z,9.55
2022-10-22T03:03:47.943Z,9.57
2022-10-22T03:06:16.261Z,8.73
2022-10-22T03:08:42.929Z,9.20
2022-10-22T03:11:09.617Z,9.45
2022-10-22T03:13:36.345Z,10.13
2022-10-22T03:16:02.926Z,8.98
2022-10-22T03:18:29.454Z,9.23
2022-10-22T03:21:07.780Z,10.10
2022-10-22T03:23:36.336Z,13.70
2022-10-22T03:26:04.367Z,12.02
2022-10-22T03:28:30.948Z,11.57
2022-10-22T03:30:57.504Z,12.38
2022-10-22T03:33:24.051Z,13.45
2022-10-22T03:35:50.754Z,14.40
2022-10-22T03:38:17.360Z,13.43
2022-10-22T03:40:46.401Z,15.23
2022-10-22T03:43:13.407Z,14.07
2022-10-22T03:45:39.996Z,11.70
2022-10-22T03:48:06.746Z,11.98
2022-10-22T03:50:33.427Z,12.02
2022-10-22T03:52:59.997Z,12.00
2022-10-22T03:55:26.731Z,12.02
2022-10-22T03:57:54.615Z,11.90
2022-10-22T04:00:21.429Z,12.57
2022-10-22T04:02:47.985Z,15.85
2022-10-22T04:07:46.185Z,17.40
2022-10-22T04:10:12.739Z,16.52
2022-10-22T04:12:39.303Z,17.17
2022-10-22T04:15:08.899Z,16.50
2022-10-22T04:17:36.151Z,16.40
2022-10-22T04:20:04.816Z,17.55
2022-10-22T04:22:33.661Z,17.00
2022-10-22T04:25:00.306Z,15.35
2022-10-22T04:27:30.573Z,17.30
2022-10-22T04:29:57.181Z,17.60
2022-10-22T04:32:25.205Z,18.05
2022-10-22T04:34:51.809Z,17.08
2022-10-22T04:37:18.388Z,16.63
2022-10-22T04:39:44.935Z,16.85
2022-10-22T04:42:11.564Z,14.63
2022-10-22T04:44:38.249Z,16.48
2022-10-22T04:47:04.885Z,17.90
2022-10-22T04:49:32.815Z,16.92
2022-10-22T04:51:59.383Z,17.02
2022-10-22T04:54:29.057Z,16.85
2022-10-22T04:56:58.897Z,16.63
2022-10-22T04:59:25.470Z,18.08
2022-10-22T05:01:52.021Z,16.98
2022-10-22T05:04:18.599Z,16.67
2022-10-22T05:06:46.937Z,16.88
2022-10-22T05:09:16.558Z,18.33
2022-10-22T05:11:44.817Z,18.95
2022-10-22T05:14:11.970Z,21.40
2022-10-22T05:16:38.820Z,19.50
2022-10-22T05:19:07.032Z,20.98
2022-10-22T05:21:34.588Z,21.40
2022-10-22T05:24:02.517Z,21.60
2022-10-22T05:26:29.832Z,21.60
2022-10-22T05:28:56.636Z,21.25
2022-10-22T05:31:23.736Z,22.48
2022-10-22T05:33:50.271Z,22.75
2022-10-22T05:36:19.334Z,24.25
2022-10-22T05:38:46.108Z,25.17
2022-10-22T05:41:15.397Z,24.08
2022-10-22T05:43:42.062Z,26.80
2022-10-22T05:46:10.223Z,25.00
2022-10-22T05:48:36.852Z,24.63
2022-10-22T05:51:04.537Z,23.77
2022-10-22T05:53:32.016Z,24.23
2022-10-22T05:56:00.953Z,22.48
2022-10-22T05:58:29.071Z,21.38
2022-10-22T06:01:00.507Z,22.45
2022-10-22T06:03:27.068Z,20.02
2022-10-22T06:05:54.154Z,20.63
2022-10-22T06:08:20.797Z,19.90
2022-10-22T06:10:47.387Z,19.65
2022-10-22T06:13:13.913Z,18.80
2022-10-22T06:15:41.784Z,20.23
2022-10-22T06:18:08.314Z,19.50
2022-10-22T06:20:35.283Z,18.30
2022-10-22T06:23:01.837Z,18.10
2022-10-22T06:25:28.404Z,18.20
2022-10-22T06:27:54.947Z,17.23
2022-10-22T06:30:21.491Z,17.65
2022-10-22T06:32:49.362Z,16.02
2022-10-22T06:35:16.084Z,17.65
2022-10-22T06:37:43.011Z,16.63
2022-10-22T06:40:10.874Z,16.75
2022-10-22T06:42:37.424Z,16.63
2022-10-22T06:45:05.266Z,14.95
2022-10-22T06:47:31.846Z,13.63
2022-10-22T06:49:59.723Z,22.67
2022-10-22T06:52:26.268Z,19.10
2022-10-22T06:54:52.837Z,25.20
2022-10-22T06:57:19.389Z,23.27
2022-10-22T06:59:46.396Z,18.73
2022-10-22T07:02:13.370Z,18.45
2022-10-22T07:04:39.913Z,20.70
2022-10-22T07:07:07.825Z,14.02
2022-10-22T07:09:34.353Z,13.82
2022-10-22T07:12:00.929Z,14.00
2022-10-22T07:14:27.442Z,11.77
2022-10-22T07:16:54.140Z,16.42
2022-10-22T07:19:20.689Z,13.05
2022-10-22T07:21:47.243Z,12.15
2022-10-22T07:24:15.142Z,13.85
2022-10-22T07:26:41.732Z,13.40
2022-10-22T07:29:08.295Z,17.48
2022-10-22T07:31:34.854Z,18.63
2022-10-22T07:34:01.447Z,14.68
2022-10-22T07:36:28.006Z,13.82
2022-10-22T07:38:56.479Z,11.43
2022-10-22T07:41:24.862Z,11.93
2022-10-22T07:43:51.450Z,10.20
2022-10-22T07:46:18.268Z,11.13
2022-10-22T07:48:44.831Z,11.80
2022-10-22T07:51:11.474Z,12.05
2022-10-22T07:53:38.231Z,12.82
2022-10-22T07:56:05.173Z,12.02
2022-10-22T07:58:33.367Z,12.15
2022-10-22T08:01:02.030Z,11.73
2022-10-22T08:03:29.265Z,11.07
2022-10-22T08:05:56.239Z,14.98
2022-10-22T08:08:25.834Z,15.18
2022-10-22T08:10:57.713Z,11.40
2022-10-22T08:13:24.260Z,12.15
2022-10-22T08:15:53.680Z,10.80
2022-10-22T08:18:23.135Z,9.98
2022-10-22T08:20:49.717Z,10.73
2022-10-22T08:23:16.251Z,9.98
2022-10-22T08:25:42.824Z,10.55
2022-10-22T08:28:09.818Z,9.55
2022-10-22T08:30:36.840Z,10.05
2022-10-22T08:33:05.084Z,9.70
2022-10-22T08:35:31.821Z,11.02
2022-10-22T08:37:58.411Z,11.55
2022-10-22T08:40:30.367Z,9.77
2022-10-22T08:43:18.254Z,10.10
2022-10-22T08:45:56.014Z,10.23
2022-10-22T08:48:34.434Z,9.32
2022-10-22T08:51:01.110Z,9.48
2022-10-22T08:53:34.287Z,9.48
2022-10-22T08:56:00.866Z,7.93
2022-10-22T08:58:35.755Z,8.02
2022-10-22T09:01:07.349Z,8.00
2022-10-22T09:03:45.997Z,7.95
2022-10-22T09:06:15.609Z,7.85
2022-10-22T09:08:44.726Z,6.53
2022-10-22T09:11:19.827Z,8.23
2022-10-22T09:13:47.833Z,8.90
2022-10-22T09:16:18.111Z,6.50
2022-10-22T09:18:57.132Z,6.15
2022-10-22T09:21:33.851Z,6.15
2022-10-22T09:24:04.928Z,5.28
2022-10-22T09:26:34.074Z,4.38
2022-10-22T09:29:01.259Z,5.03
2022-10-22T09:31:31.194Z,5.72
2022-10-22T09:34:00.213Z,4.78
2022-10-22T09:36:29.198Z,5.22
2022-10-22T09:38:55.955Z,5.68
2022-10-22T09:41:25.604Z,4.95
2022-10-22T09:43:52.181Z,4.15
2022-10-22T09:46:20.755Z,4.30
2022-10-22T09:48:50.093Z,5.57
2022-10-22T09:51:21.797Z,4.03
2022-10-22T09:53:56.360Z,4.18
2022-10-22T09:56:26.497Z,4.53
2022-10-22T09:58:55.559Z,4.30
2022-10-22T10:01:25.679Z,5.05
2022-10-22T10:03:53.146Z,4.20
2022-10-22T10:06:22.968Z,4.63
2022-10-22T10:08:50.237Z,4.63
2022-10-22T10:11:28.950Z,4.78
2022-10-22T10:14:08.476Z,4.10
2022-10-22T10:16:55.560Z,3.88
2022-10-22T10:19:41.759Z,5.97
2022-10-22T10:22:21.704Z,4.20
2022-10-22T10:24:59.146Z,5.22
2022-10-22T10:27:29.977Z,3.50
2022-10-22T10:30:03.945Z,3.97
2022-10-22T10:32:51.588Z,3.75
2022-10-22T10:35:25.323Z,4.05
2022-10-22T10:38:09.152Z,3.40
2022-10-22T10:40:44.907Z,3.20
2022-10-22T10:43:17.829Z,2.67
2022-10-22T10:45:57.441Z,3.10
2022-10-22T10:48:40.631Z,2.97
2022-10-22T10:51:21.956Z,2.38
2022-10-22T10:54:01.291Z,2.60
2022-10-22T10:56:39.092Z,2.22
2022-10-22T10:59:18.079Z,2.03
2022-10-22T11:01:59.474Z,1.92
2022-10-22T11:05:02.270Z,2.33
2022-10-22T11:07:36.586Z,2.08
2022-10-22T11:10:09.694Z,1.70
2022-10-22T11:12:42.414Z,2.15
2022-10-22T11:15:19.115Z,1.70
2022-10-22T11:17:48.177Z,1.80
2022-10-22T11:20:19.370Z,1.80
2022-10-22T11:23:17.519Z,2.53
2022-10-22T11:25:43.381Z,1.90
2022-10-22T11:28:17.244Z,1.55
2022-10-22T11:30:48.667Z,1.40
2022-10-22T11:33:19.133Z,1.23
2022-10-22T11:35:47.028Z,1.27
2022-10-22T11:38:17.358Z,1.55
2022-10-22T11:40:47.542Z,1.35
2022-10-22T11:43:27.196Z,1.95
2022-10-22T11:46:00.574Z,1.30
2022-10-22T11:48:34.313Z,1.30
2022-10-22T11:51:01.990Z,1.35
2022-10-22T11:53:33.073Z,1.15
2022-10-22T11:56:22.059Z,1.67
2022-10-22T11:58:52.251Z,2.17
2022-10-22T12:01:27.371Z,1.95
2022-10-22T12:04:22.295Z,2.08
2022-10-22T12:07:00.553Z,1.50
2022-10-22T12:09:30.653Z,1.30
2022-10-22T12:12:04.311Z,1.90
2022-10-22T12:14:34.459Z,1.55
2022-10-22T12:17:08.334Z,1.30
2022-10-22T12:19:37.930Z,1.30
2022-10-22T12:22:14.789Z,1.70
2022-10-22T12:24:46.004Z,1.50
2022-10-22T12:27:22.221Z,1.35
2022-10-22T12:29:54.648Z,1.92
2022-10-22T12:32:21.305Z,1.33
2022-10-22T12:37:17.538Z,1.48
2022-10-22T12:39:46.788Z,1.23
2022-10-22T12:42:15.062Z,1.40
2022-10-22T12:44:43.372Z,1.00
2022-10-22T12:47:15.478Z,1.40
2022-10-22T12:49:44.505Z,1.30
2022-10-22T12:52:14.664Z,1.30
2022-10-22T12:54:41.669Z,1.40
2022-10-22T12:57:14.663Z,1.33
2022-10-22T12:59:47.231Z,1.27
2022-10-22T13:02:19.769Z,1.30
2022-10-22T13:05:13.747Z,1.20
2022-10-22T13:07:43.632Z,1.45
2022-10-22T13:10:18.788Z,1.33
2022-10-22T13:12:50.224Z,1.40
2022-10-22T13:15:23.028Z,1.42
2022-10-22T13:17:49.738Z,1.20
2022-10-22T13:20:19.643Z,1.05
2022-10-22T13:22:58.346Z,1.25
2022-10-22T13:25:27.271Z,1.73
2022-10-22T13:27:57.377Z,1.40
2022-10-22T13:30:25.895Z,1.50
2022-10-22T13:32:54.791Z,0.93
2022-10-22T13:35:24.384Z,1.27
2022-10-22T13:37:50.939Z,1.15
2022-10-22T13:40:18.003Z,1.58
2022-10-22T13:42:44.842Z,1.10
2022-10-22T13:45:13.576Z,1.35
2022-10-22T13:47:40.968Z,1.33
2022-10-22T13:50:13.756Z,1.80
2022-10-22T13:52:43.722Z,1.17
2022-10-22T13:55:16.568Z,1.20
2022-10-22T13:57:43.367Z,1.30
2022-10-22T14:00:15.061Z,1.23
2022-10-22T14:05:10.131Z,1.50
2022-10-22T14:07:37.423Z,1.77
2022-10-22T14:10:13.453Z,1.20
2022-10-22T14:12:40.027Z,1.67
2022-10-22T14:15:07.873Z,1.85
2022-10-22T14:17:35.836Z,1.42
2022-10-22T14:20:02.403Z,1.67
2022-10-22T14:22:30.483Z,1.63
2022-10-22T14:24:57.112Z,1.60
2022-10-22T14:27:23.676Z,1.65
2022-10-22T14:29:50.234Z,1.52
2022-10-22T14:32:18.835Z,1.65
2022-10-22T14:34:47.527Z,1.23
2022-10-22T14:37:16.856Z,1.27
2022-10-22T14:39:43.707Z,1.40
2022-10-22T14:42:11.345Z,1.42
2022-10-22T14:44:37.931Z,1.52
2022-10-22T14:47:04.658Z,1.45
2022-10-22T14:49:31.217Z,1.40
2022-10-22T14:51:59.340Z,1.55
2022-10-22T14:54:26.121Z,1.15
2022-10-22T14:56:52.671Z,1.40
2022-10-22T14:59:19.229Z,1.50
2022-10-22T15:01:45.820Z,1.50
2022-10-22T15:04:12.402Z,1.40
2022-10-22T15:06:38.979Z,1.30
2022-10-22T15:09:06.945Z,1.30
2022-10-22T15:11:33.568Z,1.20
2022-10-22T15:14:00.117Z,1.90
2022-10-22T15:16:26.690Z,2.08
2022-10-22T15:18:53.278Z,1.88
2022-10-22T15:21:21.947Z,1.30
2022-10-22T15:23:49.266Z,1.50
2022-10-22T15:26:17.373Z,1.50
2022-10-22T15:28:43.933Z,1.30
2022-10-22T15:31:13.502Z,1.20
2022-10-22T15:33:41.417Z,1.50
2022-10-22T15:36:12.364Z,1.77
2022-10-22T15:38:39.245Z,1.50
2022-10-22T15:41:07.656Z,1.27
2022-10-22T15:43:35.940Z,1.40
2022-10-22T15:46:10.989Z,1.30
2022-10-22T15:48:37.583Z,1.92
2022-10-22T15:51:08.644Z,1.30
2022-10-22T15:53:35.231Z,1.80
2022-10-22T15:56:01.838Z,2.03
2022-10-22T15:58:28.394Z,2.75
2022-10-22T16:01:03.116Z,2.00
2022-10-22T16:06:02.099Z,1.50
2022-10-22T16:08:28.719Z,1.65
2022-10-22T16:10:55.326Z,1.40
2022-10-22T16:13:22.610Z,1.60
2022-10-22T16:15:49.321Z,1.33
2022-10-22T16:18:17.337Z,1.20
2022-10-22T16:20:44.046Z,1.50
2022-10-22T16:23:10.713Z,1.55
2022-10-22T16:25:38.318Z,4.18
2022-10-22T16:28:05.492Z,1.45
2022-10-22T16:30:32.836Z,1.75
2022-10-22T16:32:59.417Z,1.85
2022-10-22T16:35:28.343Z,8.35
2022-10-22T16:37:54.909Z,2.53
2022-10-22T16:40:21.677Z,1.58
2022-10-22T16:42:48.276Z,1.77
2022-10-22T16:47:46.788Z,1.70
2022-10-22T16:50:13.442Z,1.92
2022-10-22T16:52:41.510Z,1.90
2022-10-22T16:55:08.992Z,1.90
2022-10-22T16:57:35.745Z,1.80
2022-10-22T17:00:02.384Z,2.40
2022-10-22T17:02:28.955Z,4.32
2022-10-22T17:04:55.527Z,16.75
2022-10-22T17:07:22.117Z,4.82
2022-10-22T17:09:50.043Z,4.88
2022-10-22T17:12:16.749Z,4.63
2022-10-22T17:14:43.309Z,4.10
2022-10-22T17:17:09.876Z,3.08
2022-10-22T17:19:36.437Z,3.58
2022-10-22T17:22:02.993Z,3.05
2022-10-22T17:24:29.523Z,2.47
2022-10-22T17:26:57.513Z,2.60
2022-10-22T17:29:24.068Z,2.63
2022-10-22T17:31:50.687Z,3.30
2022-10-22T17:34:17.426Z,4.43
2022-10-22T17:36:44.605Z,3.75
2022-10-22T17:39:16.183Z,2.90
2022-10-22T17:41:42.757Z,2.72
2022-10-22T17:44:17.036Z,2.72
2022-10-22T17:46:43.865Z,2.92
2022-10-22T17:49:15.786Z,3.20
2022-10-22T17:54:10.076Z,4.22
2022-10-22T17:56:37.717Z,3.13
2022-10-22T17:59:04.300Z,3.17
2022-10-22T18:01:35.123Z,3.10
2022-10-22T18:04:03.573Z,3.58
2022-10-22T18:06:30.983Z,3.50
2022-10-22T18:08:57.829Z,3.60
2022-10-22T18:11:27.022Z,3.00
2022-10-22T18:13:56.003Z,3.35
2022-10-22T18:16:22.767Z,3.42
2022-10-22T18:18:52.683Z,3.35
2022-10-22T18:21:20.352Z,4.18
2022-10-22T18:23:47.088Z,3.53
2022-10-22T18:26:14.055Z,4.00
2022-10-22T18:28:40.987Z,3.28
2022-10-22T18:31:09.170Z,3.97
2022-10-22T18:33:36.506Z,3.75
2022-10-22T18:36:06.816Z,4.90
2022-10-22T18:38:33.498Z,4.13
2022-10-22T18:41:00.085Z,7.38
2022-10-22T18:43:26.723Z,8.23
2022-10-22T18:45:53.284Z,5.90
2022-10-22T18:48:20.780Z,3.40
2022-10-22T18:50:47.394Z,3.30
2022-10-22T18:53:16.740Z,3.17
2022-10-22T18:55:43.505Z,4.75
2022-10-22T18:58:10.042Z,3.50
2022-10-22T19:00:36.618Z,3.25
2022-10-22T19:03:03.300Z,3.25
2022-10-22T19:05:29.968Z,3.30
2022-10-22T19:07:56.543Z,3.92
2022-10-22T19:10:24.471Z,3.70
2022-10-22T19:12:51.068Z,4.07
2022-10-22T19:15:17.886Z,3.92
2022-10-22T19:17:44.671Z,3.72
2022-10-22T19:20:11.457Z,2.95
2022-10-22T19:22:38.038Z,3.10
2022-10-22T19:25:07.110Z,3.85
2022-10-22T19:27:37.616Z,3.33
2022-10-22T19:30:04.607Z,3.35
2022-10-22T19:32:31.366Z,3.22
2022-10-22T19:34:57.985Z,3.70
2022-10-22T19:37:24.651Z,4.57
2022-10-22T19:39:51.442Z,44.17
2022-10-22T19:42:18.002Z,28.95
2022-10-22T19:44:45.949Z,38.25
2022-10-22T19:47:12.528Z,23.05
2022-10-22T19:49:39.068Z,43.67
2022-10-22T19:52:05.722Z,60.83
2022-10-22T19:54:32.261Z,20.92
2022-10-22T19:56:58.932Z,18.70
2022-10-22T19:59:28.552Z,8.55
2022-10-22T20:01:59.329Z,4.82
2022-10-22T20:04:26.025Z,10.60
2022-10-22T20:06:52.592Z,9.95
2022-10-22T20:09:19.159Z,10.43
2022-10-22T20:11:45.882Z,37.15
2022-10-22T20:14:13.003Z,29.70
2022-10-22T20:16:40.503Z,11.02
2022-10-22T20:19:10.293Z,17.63
2022-10-22T20:21:36.981Z,6.55
2022-10-22T20:24:04.341Z,4.65
2022-10-22T20:26:30.937Z,3.63
2022-10-22T20:28:58.142Z,3.72
2022-10-22T20:31:26.384Z,4.75
2022-10-22T20:33:55.142Z,4.70
2022-10-22T20:36:23.982Z,5.35
2022-10-22T20:38:51.575Z,4.32
2022-10-22T20:41:20.776Z,3.40
2022-10-22T20:43:49.317Z,3.10
2022-10-22T20:46:18.723Z,2.95
2022-10-22T20:48:45.661Z,2.85
2022-10-22T20:51:12.964Z,3.10
2022-10-22T20:53:40.876Z,2.67
2022-10-22T20:56:08.097Z,3.30
2022-10-22T20:58:35.515Z,2.58
2022-10-22T21:01:02.143Z,2.90
2022-10-22T21:03:28.729Z,3.42
2022-10-22T21:05:55.374Z,3.10
2022-10-22T21:08:21.934Z,3.50
2022-10-22T21:10:49.885Z,3.00
2022-10-22T21:13:16.849Z,3.40
2022-10-22T21:15:43.463Z,7.43
2022-10-22T21:18:10.036Z,3.28
2022-10-22T21:20:38.274Z,9.45
2022-10-22T21:23:05.017Z,25.63
2022-10-22T21:25:31.631Z,33.30
2022-10-22T21:27:59.535Z,19.55
2022-10-22T21:30:26.200Z,7.95
2022-10-22T21:32:52.777Z,11.70
2022-10-22T21:35:19.369Z,62.40
2022-10-22T21:37:45.907Z,60.47
2022-10-22T21:40:12.719Z,41.38
2022-10-22T21:42:39.373Z,28.85
2022-10-22T21:45:12.184Z,126.47
2022-10-22T21:47:41.140Z,79.78
2022-10-22T21:50:08.508Z,53.83
2022-10-22T21:52:35.092Z,66.13
2022-10-22T21:55:01.657Z,24.42
2022-10-22T21:57:28.220Z,18.92
2022-10-22T21:59:54.796Z,14.65
2022-10-22T22:02:22.732Z,13.68
2022-10-22T22:04:49.286Z,21.00
2022-10-22T22:07:15.963Z,19.25
2022-10-22T22:09:42.518Z,23.55
2022-10-22T22:12:09.073Z,20.40
2022-10-22T22:14:35.648Z,16.13
2022-10-22T22:17:02.225Z,10.88
2022-10-22T22:19:30.156Z,11.20
2022-10-22T22:21:56.743Z,11.23
2022-10-22T22:24:23.342Z,11.10
2022-10-22T22:26:49.915Z,11.95
2022-10-22T22:29:16.482Z,9.85
2022-10-22T22:31:43.057Z,11.13
2022-10-22T22:34:12.524Z,12.25
2022-10-22T22:36:42.085Z,10.43
2022-10-22T22:39:11.704Z,12.35
2022-10-22T22:41:38.345Z,10.55
2022-10-22T22:44:05.610Z,10.23
2022-10-22T22:46:32.233Z,10.93
2022-10-22T22:48:58.857Z,11.00
2022-10-22T22:51:25.484Z,9.23
2022-10-22T22:53:53.476Z,8.15
2022-10-22T22:56:21.722Z,8.02
2022-10-22T22:58:48.724Z,8.93
2022-10-22T23:01:17.764Z,8.55
2022-10-22T23:03:45.195Z,7.65
2022-10-22T23:06:13.137Z,8.13
2022-10-22T23:08:39.927Z,8.35
2022-10-22T23:11:10.631Z,7.38
2022-10-22T23:13:38.432Z,7.18
2022-10-22T23:16:06.457Z,5.10
2022-10-22T23:18:33.058Z,4.97
2022-10-22T23:21:03.843Z,4.97
2022-10-22T23:23:30.415Z,5.85
2022-10-22T23:28:29.992Z,4.90
2022-10-22T23:30:56.562Z,6.65
2022-10-22T23:33:23.113Z,6.50
2022-10-22T23:35:49.660Z,5.63
2022-10-22T23:38:16.212Z,6.40
2022-10-22T23:40:42.815Z,6.20
2022-10-22T23:43:09.344Z,4.30
2022-10-22T23:45:37.302Z,3.80
2022-10-22T23:48:04.221Z,3.65
2022-10-22T23:50:30.803Z,3.40
2022-10-22T23:52:57.377Z,3.22
2022-10-22T23:55:24.054Z,3.00
2022-10-22T23:57:50.650Z,5.32
